Terminal Aerodrome Forecast
Issued by NWS Tulsa, OK

Home | Current Version | Previous Version | Text Only | Print | Product List | Glossary On
Versions: 1 2 3 4 5 6 7 8 9 10 11 12 13
000
FTUS44 KTSA 241120
TAFTUL
TAF
KTUL 241120Z 2412/2512 17013G19KT P6SM BKN250
     FM241600 18020G30KT P6SM SCT250
     FM242200 21018G25KT P6SM SKC
     FM250100 23012G18KT P6SM FEW250
     FM250800 30010KT P6SM SCT250=

USA.gov is the U.S. government's official web portal to all federal, state and local government web resources and services.